Greenville Spartanburg International Airport
KGSP : rendu visible

Aérodrome :











RETROUVEZ-NOUS SUR...

 
LOGIN :

S'inscrire | Disclaimer

   EN    FR    IT 

 









Légende :    VFR   VFR Marginal   IFR   IFR Intensif   IFR Très Intensif
Visi : 
Plafond : 
>= 8 km
>= 3000ft
5 à 8 km
1000 à 3000 ft
1500m à 5 km
500 à 1000 ft
800 à 1500m
200 à 500 ft
< 800m
< 200 ft
Symboles :   Orages  Brouillard  Fortes neiges  Fortes précipitations  Vent > 20 kt






- Altitude de l'aérodrome : 964 ft
- Code IATA : GSP


KGSP - Greenville Spartanburg International

DERNIER METAR :
  • 081953Z 01008KT 10SM CLR 10/M05 A3031 RMK AO2 SLP264 T01001050

METARs EXPIRÉS :
  • 081853Z VRB05KT 10SM CLR 09/M04 A3033 RMK AO2 SLP270 T00941039
  • 081753Z 06006KT 10SM CLR 09/M04 A3037 RMK AO2 SLP284 T00891044 10089 20028 58024

TAF KGSP
Valide du 08 à 18h jusqu'au 09 à 18h UTC


081745Z 0818/0918 07006KT P6SM SCT060 BKN250
FM090000 03006KT P6SM OVC050
FM090800 04005KT P6SM OVC030
PROB30 0908/0914 4SM -RA BR OVC015
FM091400 VRB02KT 6SM -RA BR OVC007
FM091600 16004KT 5SM -RA BR OVC005



MET'MAP, la Météo Aéronautique d'un coup d'oeil ! - Copyright ORBIFLY Décembre 2007 - Disclaimer

ORBIFLY MET'MAP TEAM :

Programmation & Développement : Alexandra Zaïnal
Sur une idée originale de : Baudouin d'Aumeries
Assistance à la programmation : Marc-Olivier Méhu
Soutien technique & logistique : Manuel Goepfert

Contact : metmap@orbifly.com




SOURCES & CREDITS :

   NOAA       Earth
Advisory